sensor_id;sensor_type;location;lat;lon;timestamp;pressure;altitude;pressure_sealevel;temperature;humidity
59367;BME280;45163;47.690;11.770;2023-08-17T00:00:27;93571.44;;;17.70;100.00
59367;BME280;45163;47.690;11.770;2023-08-17T00:02:53;93577.91;;;17.67;100.00
59367;BME280;45163;47.690;11.770;2023-08-17T00:05:19;93568.28;;;17.62;100.00
59367;BME280;45163;47.690;11.770;2023-08-17T00:07:45;93570.75;;;17.60;100.00
59367;BME280;45163;47.690;11.770;2023-08-17T00:10:11;93575.97;;;17.58;100.00
59367;BME280;45163;47.690;11.770;2023-08-17T00:12:37;93574.94;;;17.56;100.00
59367;BME280;45163;47.690;11.770;2023-08-17T00:15:03;93570.63;;;17.55;100.00
59367;BME280;45163;47.690;11.770;2023-08-17T00:17:29;93569.59;;;17.52;100.00
59367;BME280;45163;47.690;11.770;2023-08-17T00:19:56;93565.97;;;17.46;100.00
59367;BME280;45163;47.690;11.770;2023-08-17T00:22:22;93567.72;;;17.34;100.00
59367;BME280;45163;47.690;11.770;2023-08-17T00:24:47;93568.41;;;17.29;100.00
59367;BME280;45163;47.690;11.770;2023-08-17T00:27:13;93570.88;;;17.27;100.00
59367;BME280;45163;47.690;11.770;2023-08-17T00:29:39;93566.53;;;17.35;100.00
59367;BME280;45163;47.690;11.770;2023-08-17T00:32:05;93565.50;;;17.48;100.00
59367;BME280;45163;47.690;11.770;2023-08-17T00:34:31;93557.59;;;17.55;100.00
59367;BME280;45163;47.690;11.770;2023-08-17T00:36:57;93564.47;;;17.60;100.00
59367;BME280;45163;47.690;11.770;2023-08-17T00:39:23;93560.19;;;17.59;100.00
59367;BME280;45163;47.690;11.770;2023-08-17T00:41:49;93559.16;;;17.56;100.00
59367;BME280;45163;47.690;11.770;2023-08-17T00:44:15;93559.41;;;17.58;100.00
59367;BME280;45163;47.690;11.770;2023-08-17T00:46:41;93561.31;;;17.52;100.00
59367;BME280;45163;47.690;11.770;2023-08-17T00:49:07;93561.38;;;17.43;100.00
59367;BME280;45163;47.690;11.770;2023-08-17T00:51:33;93554.25;;;17.36;100.00
59367;BME280;45163;47.690;11.770;2023-08-17T00:54:01;93550.16;;;17.47;100.00
59367;BME280;45163;47.690;11.770;2023-08-17T00:56:27;93552.38;;;17.57;100.00
59367;BME280;45163;47.690;11.770;2023-08-17T00:58:54;93553.13;;;17.58;100.00
59367;BME280;45163;47.690;11.770;2023-08-17T01:01:20;93547.34;;;17.56;100.00
59367;BME280;45163;47.690;11.770;2023-08-17T01:03:46;93547.91;;;17.60;100.00
59367;BME280;45163;47.690;11.770;2023-08-17T01:06:12;93549.44;;;17.61;100.00
59367;BME280;45163;47.690;11.770;2023-08-17T01:08:39;93552.28;;;17.66;100.00
59367;BME280;45163;47.690;11.770;2023-08-17T01:13:48;93556.19;;;17.60;100.00
59367;BME280;45163;47.690;11.770;2023-08-17T01:16:27;93551.63;;;17.57;100.00
59367;BME280;45163;47.690;11.770;2023-08-17T01:18:57;93552.56;;;17.54;100.00
59367;BME280;45163;47.690;11.770;2023-08-17T01:21:24;93547.53;;;17.52;100.00
59367;BME280;45163;47.690;11.770;2023-08-17T01:23:57;93540.94;;;17.50;100.00
59367;BME280;45163;47.690;11.770;2023-08-17T01:26:24;93544.81;;;17.43;100.00
59367;BME280;45163;47.690;11.770;2023-08-17T01:28:50;93539.59;;;17.45;100.00
59367;BME280;45163;47.690;11.770;2023-08-17T01:31:29;93539.78;;;17.41;100.00
59367;BME280;45163;47.690;11.770;2023-08-17T01:34:04;93543.47;;;17.38;100.00
59367;BME280;45163;47.690;11.770;2023-08-17T01:36:43;93544.16;;;17.33;100.00
59367;BME280;45163;47.690;11.770;2023-08-17T01:39:13;93547.66;;;17.34;100.00
59367;BME280;45163;47.690;11.770;2023-08-17T01:41:43;93553.09;;;17.28;100.00
59367;BME280;45163;47.690;11.770;2023-08-17T01:44:13;93557.34;;;17.29;100.00
59367;BME280;45163;47.690;11.770;2023-08-17T01:46:39;93545.38;;;17.32;100.00
59367;BME280;45163;47.690;11.770;2023-08-17T01:49:05;93541.09;;;17.31;100.00
59367;BME280;45163;47.690;11.770;2023-08-17T01:51:31;93544.81;;;17.28;100.00
59367;BME280;45163;47.690;11.770;2023-08-17T01:53:57;93540.03;;;17.29;100.00
59367;BME280;45163;47.690;11.770;2023-08-17T01:56:23;93544.97;;;17.25;100.00
59367;BME280;45163;47.690;11.770;2023-08-17T01:58:49;93547.25;;;17.26;100.00
59367;BME280;45163;47.690;11.770;2023-08-17T02:01:15;93540.13;;;17.20;100.00
59367;BME280;45163;47.690;11.770;2023-08-17T02:03:41;93544.56;;;17.17;100.00
59367;BME280;45163;47.690;11.770;2023-08-17T02:06:07;93549.81;;;17.15;100.00
59367;BME280;45163;47.690;11.770;2023-08-17T02:08:33;93550.69;;;17.21;100.00
59367;BME280;45163;47.690;11.770;2023-08-17T02:11:00;93546.03;;;17.27;100.00
59367;BME280;45163;47.690;11.770;2023-08-17T02:13:26;93535.19;;;17.24;100.00
59367;BME280;45163;47.690;11.770;2023-08-17T02:15:53;93539.19;;;17.23;100.00
59367;BME280;45163;47.690;11.770;2023-08-17T02:18:19;93533.84;;;17.19;100.00
59367;BME280;45163;47.690;11.770;2023-08-17T02:20:45;93528.59;;;17.21;100.00
59367;BME280;45163;47.690;11.770;2023-08-17T02:23:11;93531.09;;;17.19;100.00
59367;BME280;45163;47.690;11.770;2023-08-17T02:25:40;93531.38;;;17.21;100.00
59367;BME280;45163;47.690;11.770;2023-08-17T02:28:06;93525.56;;;17.19;100.00
59367;BME280;45163;47.690;11.770;2023-08-17T02:30:32;93520.72;;;17.29;100.00
59367;BME280;45163;47.690;11.770;2023-08-17T02:32:58;93518.28;;;17.31;100.00
59367;BME280;45163;47.690;11.770;2023-08-17T02:35:24;93520.66;;;17.38;100.00
59367;BME280;45163;47.690;11.770;2023-08-17T02:37:50;93523.91;;;17.36;100.00
59367;BME280;45163;47.690;11.770;2023-08-17T02:40:17;93519.31;;;17.33;100.00
59367;BME280;45163;47.690;11.770;2023-08-17T02:42:43;93523.22;;;17.27;100.00
59367;BME280;45163;47.690;11.770;2023-08-17T02:45:09;93517.69;;;17.27;100.00
59367;BME280;45163;47.690;11.770;2023-08-17T02:47:35;93520.16;;;17.25;100.00
59367;BME280;45163;47.690;11.770;2023-08-17T02:50:01;93518.63;;;17.24;100.00
59367;BME280;45163;47.690;11.770;2023-08-17T02:52:27;93513.94;;;17.15;100.00
59367;BME280;45163;47.690;11.770;2023-08-17T02:54:53;93517.94;;;17.14;100.00
59367;BME280;45163;47.690;11.770;2023-08-17T02:57:20;93515.38;;;17.10;100.00
59367;BME280;45163;47.690;11.770;2023-08-17T02:59:46;93516.88;;;17.11;100.00
59367;BME280;45163;47.690;11.770;2023-08-17T03:02:12;93520.31;;;17.06;100.00
59367;BME280;45163;47.690;11.770;2023-08-17T03:04:38;93526.94;;;17.00;100.00
59367;BME280;45163;47.690;11.770;2023-08-17T03:07:04;93521.72;;;17.02;100.00
59367;BME280;45163;47.690;11.770;2023-08-17T03:09:30;93524.75;;;17.04;100.00
59367;BME280;45163;47.690;11.770;2023-08-17T03:11:56;93528.16;;;16.99;100.00
59367;BME280;45163;47.690;11.770;2023-08-17T03:14:22;93522.94;;;17.01;100.00
59367;BME280;45163;47.690;11.770;2023-08-17T03:16:48;93524.66;;;16.98;100.00
59367;BME280;45163;47.690;11.770;2023-08-17T03:19:15;93521.41;;;17.00;100.00
59367;BME280;45163;47.690;11.770;2023-08-17T03:21:41;93527.25;;;17.02;100.00
59367;BME280;45163;47.690;11.770;2023-08-17T03:24:07;93527.34;;;17.07;100.00
59367;BME280;45163;47.690;11.770;2023-08-17T03:26:33;93523.34;;;17.08;100.00
59367;BME280;45163;47.690;11.770;2023-08-17T03:28:59;93536.69;;;17.10;100.00
59367;BME280;45163;47.690;11.770;2023-08-17T03:31:25;93528.59;;;17.06;100.00
59367;BME280;45163;47.690;11.770;2023-08-17T03:33:51;93528.44;;;17.01;100.00
59367;BME280;45163;47.690;11.770;2023-08-17T03:36:17;93530.16;;;16.98;100.00
59367;BME280;45163;47.690;11.770;2023-08-17T03:38:43;93527.41;;;16.98;100.00
59367;BME280;45163;47.690;11.770;2023-08-17T03:41:09;93530.44;;;17.00;100.00
59367;BME280;45163;47.690;11.770;2023-08-17T03:43:35;93528.25;;;16.89;100.00
59367;BME280;45163;47.690;11.770;2023-08-17T03:46:01;93528.41;;;16.86;100.00
59367;BME280;45163;47.690;11.770;2023-08-17T03:48:27;93532.69;;;16.87;100.00
59367;BME280;45163;47.690;11.770;2023-08-17T03:50:54;93529.00;;;16.90;100.00
59367;BME280;45163;47.690;11.770;2023-08-17T03:53:20;93536.19;;;16.87;100.00
59367;BME280;45163;47.690;11.770;2023-08-17T03:55:47;93533.63;;;16.84;100.00
59367;BME280;45163;47.690;11.770;2023-08-17T03:58:13;93536.09;;;16.82;100.00
59367;BME280;45163;47.690;11.770;2023-08-17T04:00:39;93538.09;;;16.81;100.00
59367;BME280;45163;47.690;11.770;2023-08-17T04:03:06;93542.84;;;16.81;100.00
59367;BME280;45163;47.690;11.770;2023-08-17T04:05:32;93545.59;;;16.81;100.00
59367;BME280;45163;47.690;11.770;2023-08-17T04:08:00;93554.25;;;16.88;100.00
59367;BME280;45163;47.690;11.770;2023-08-17T04:10:28;93549.81;;;17.15;100.00
59367;BME280;45163;47.690;11.770;2023-08-17T04:12:58;93546.97;;;17.24;100.00
59367;BME280;45163;47.690;11.770;2023-08-17T04:15:24;93545.16;;;17.21;100.00
59367;BME280;45163;47.690;11.770;2023-08-17T04:17:50;93552.00;;;17.26;100.00
59367;BME280;45163;47.690;11.770;2023-08-17T04:20:16;93556.00;;;17.25;100.00
59367;BME280;45163;47.690;11.770;2023-08-17T04:22:44;93562.28;;;17.25;100.00
59367;BME280;45163;47.690;11.770;2023-08-17T04:25:10;93553.66;;;17.32;100.00
59367;BME280;45163;47.690;11.770;2023-08-17T04:27:36;93553.94;;;17.34;100.00
59367;BME280;45163;47.690;11.770;2023-08-17T04:30:02;93554.53;;;17.38;100.00
59367;BME280;45163;47.690;11.770;2023-08-17T04:32:28;93556.94;;;17.22;100.00
59367;BME280;45163;47.690;11.770;2023-08-17T04:34:55;93553.25;;;17.25;100.00
59367;BME280;45163;47.690;11.770;2023-08-17T04:37:22;93561.06;;;17.26;100.00
59367;BME280;45163;47.690;11.770;2023-08-17T04:39:48;93558.94;;;17.21;100.00
59367;BME280;45163;47.690;11.770;2023-08-17T04:42:15;93563.59;;;17.15;100.00
59367;BME280;45163;47.690;11.770;2023-08-17T04:44:41;93564.84;;;17.14;100.00
59367;BME280;45163;47.690;11.770;2023-08-17T04:47:08;93567.88;;;17.16;100.00
59367;BME280;45163;47.690;11.770;2023-08-17T04:49:34;93567.88;;;17.16;100.00
59367;BME280;45163;47.690;11.770;2023-08-17T04:52:00;93573.41;;;17.16;100.00
59367;BME280;45163;47.690;11.770;2023-08-17T04:54:26;93577.09;;;17.13;100.00
59367;BME280;45163;47.690;11.770;2023-08-17T04:56:51;93580.16;;;17.15;100.00
59367;BME280;45163;47.690;11.770;2023-08-17T04:59:17;93581.91;;;17.03;100.00
59367;BME280;45163;47.690;11.770;2023-08-17T05:01:43;93580.31;;;16.87;100.00
59367;BME280;45163;47.690;11.770;2023-08-17T05:04:09;93580.09;;;17.00;100.00
59367;BME280;45163;47.690;11.770;2023-08-17T05:06:35;93576.34;;;17.12;100.00
59367;BME280;45163;47.690;11.770;2023-08-17T05:09:04;93578.91;;;17.16;100.00
59367;BME280;45163;47.690;11.770;2023-08-17T05:11:31;93570.28;;;17.23;100.00
59367;BME280;45163;47.690;11.770;2023-08-17T05:13:57;93578.66;;;17.29;100.00
59367;BME280;45163;47.690;11.770;2023-08-17T05:16:23;93567.38;;;17.41;100.00
59367;BME280;45163;47.690;11.770;2023-08-17T05:18:49;93565.31;;;17.51;100.00
59367;BME280;45163;47.690;11.770;2023-08-17T05:21:15;93567.63;;;17.67;100.00
59367;BME280;45163;47.690;11.770;2023-08-17T05:23:41;93562.63;;;17.81;100.00
59367;BME280;45163;47.690;11.770;2023-08-17T05:26:07;93564.16;;;17.97;100.00
59367;BME280;45163;47.690;11.770;2023-08-17T05:28:34;93570.13;;;18.10;100.00
59367;BME280;45163;47.690;11.770;2023-08-17T05:31:06;93572.34;;;18.21;100.00
59367;BME280;45163;47.690;11.770;2023-08-17T05:33:32;93564.81;;;18.21;100.00
59367;BME280;45163;47.690;11.770;2023-08-17T05:35:59;93557.34;;;18.42;100.00
59367;BME280;45163;47.690;11.770;2023-08-17T05:38:25;93564.94;;;18.62;100.00
59367;BME280;45163;47.690;11.770;2023-08-17T05:40:58;93558.94;;;18.78;100.00
59367;BME280;45163;47.690;11.770;2023-08-17T05:43:25;93562.13;;;18.91;100.00
59367;BME280;45163;47.690;11.770;2023-08-17T05:45:51;93559.09;;;18.89;100.00
59367;BME280;45163;47.690;11.770;2023-08-17T05:48:19;93552.19;;;19.00;100.00
59367;BME280;45163;47.690;11.770;2023-08-17T05:50:45;93557.22;;;19.01;100.00
59367;BME280;45163;47.690;11.770;2023-08-17T05:53:11;93559.19;;;19.15;100.00
59367;BME280;45163;47.690;11.770;2023-08-17T05:55:37;93548.53;;;19.29;100.00
59367;BME280;45163;47.690;11.770;2023-08-17T05:58:03;93540.63;;;19.42;100.00
59367;BME280;45163;47.690;11.770;2023-08-17T06:00:32;93549.47;;;19.67;100.00
59367;BME280;45163;47.690;11.770;2023-08-17T06:02:58;93541.59;;;19.85;100.00
59367;BME280;45163;47.690;11.770;2023-08-17T06:05:27;93543.91;;;20.19;100.00
59367;BME280;45163;47.690;11.770;2023-08-17T06:07:57;93545.66;;;20.48;100.00
59367;BME280;45163;47.690;11.770;2023-08-17T06:10:23;93541.50;;;20.63;100.00
59367;BME280;45163;47.690;11.770;2023-08-17T06:12:55;93545.53;;;21.00;100.00
59367;BME280;45163;47.690;11.770;2023-08-17T06:15:22;93538.16;;;21.34;100.00
59367;BME280;45163;47.690;11.770;2023-08-17T06:17:49;93531.16;;;21.61;100.00
59367;BME280;45163;47.690;11.770;2023-08-17T06:20:18;93524.97;;;22.17;100.00
59367;BME280;45163;47.690;11.770;2023-08-17T06:22:46;93516.38;;;22.43;100.00
59367;BME280;45163;47.690;11.770;2023-08-17T06:25:12;93516.13;;;22.52;100.00
59367;BME280;45163;47.690;11.770;2023-08-17T06:27:38;93515.06;;;23.00;100.00
59367;BME280;45163;47.690;11.770;2023-08-17T06:30:04;93507.81;;;23.44;100.00
59367;BME280;45163;47.690;11.770;2023-08-17T06:32:31;93503.53;;;23.90;100.00
59367;BME280;45163;47.690;11.770;2023-08-17T06:34:57;93499.88;;;24.06;100.00
59367;BME280;45163;47.690;11.770;2023-08-17T06:37:23;93500.84;;;24.14;100.00
59367;BME280;45163;47.690;11.770;2023-08-17T06:39:49;93493.91;;;24.56;100.00
59367;BME280;45163;47.690;11.770;2023-08-17T06:42:15;93495.72;;;24.78;100.00
59367;BME280;45163;47.690;11.770;2023-08-17T06:44:41;93488.28;;;25.17;100.00
59367;BME280;45163;47.690;11.770;2023-08-17T06:47:07;93494.44;;;25.72;100.00
59367;BME280;45163;47.690;11.770;2023-08-17T06:49:34;93488.78;;;25.58;100.00
59367;BME280;45163;47.690;11.770;2023-08-17T06:52:01;93483.91;;;26.16;100.00
59367;BME280;45163;47.690;11.770;2023-08-17T06:54:27;93484.22;;;26.76;100.00
59367;BME280;45163;47.690;11.770;2023-08-17T06:56:53;93487.50;;;27.20;100.00
59367;BME280;45163;47.690;11.770;2023-08-17T06:59:19;93484.69;;;27.34;100.00
59367;BME280;45163;47.690;11.770;2023-08-17T07:01:45;93486.00;;;27.19;100.00
59367;BME280;45163;47.690;11.770;2023-08-17T07:04:11;93482.63;;;27.74;100.00
59367;BME280;45163;47.690;11.770;2023-08-17T07:06:37;93485.78;;;27.91;100.00
59367;BME280;45163;47.690;11.770;2023-08-17T07:09:03;93481.97;;;27.68;100.00
59367;BME280;45163;47.690;11.770;2023-08-17T07:11:31;93486.78;;;27.94;100.00
59367;BME280;45163;47.690;11.770;2023-08-17T07:13:57;93482.25;;;28.46;100.00
59367;BME280;45163;47.690;11.770;2023-08-17T07:16:23;93476.75;;;28.82;100.00
59367;BME280;45163;47.690;11.770;2023-08-17T07:18:49;93477.78;;;28.71;100.00
59367;BME280;45163;47.690;11.770;2023-08-17T07:21:15;93483.34;;;29.06;100.00
59367;BME280;45163;47.690;11.770;2023-08-17T07:23:44;93482.03;;;29.35;100.00
59367;BME280;45163;47.690;11.770;2023-08-17T07:26:10;93473.03;;;29.37;100.00
59367;BME280;45163;47.690;11.770;2023-08-17T07:28:36;93485.44;;;28.92;100.00
59367;BME280;45163;47.690;11.770;2023-08-17T07:31:02;93481.47;;;29.08;100.00
59367;BME280;45163;47.690;11.770;2023-08-17T07:33:28;93484.09;;;29.35;100.00
59367;BME280;45163;47.690;11.770;2023-08-17T07:35:54;93486.38;;;29.80;100.00
59367;BME280;45163;47.690;11.770;2023-08-17T07:38:21;93493.56;;;30.71;100.00
59367;BME280;45163;47.690;11.770;2023-08-17T07:40:47;93490.00;;;31.01;100.00
59367;BME280;45163;47.690;11.770;2023-08-17T07:43:13;93491.31;;;31.23;100.00
59367;BME280;45163;47.690;11.770;2023-08-17T07:45:39;93493.00;;;31.34;100.00
59367;BME280;45163;47.690;11.770;2023-08-17T07:48:05;93501.06;;;31.53;98.44
59367;BME280;45163;47.690;11.770;2023-08-17T07:50:31;93490.81;;;31.80;95.55
59367;BME280;45163;47.690;11.770;2023-08-17T07:52:57;93494.22;;;31.71;86.91
59367;BME280;45163;47.690;11.770;2023-08-17T07:55:23;93495.31;;;31.98;88.95
59367;BME280;45163;47.690;11.770;2023-08-17T07:57:50;93496.91;;;32.17;84.00
59367;BME280;45163;47.690;11.770;2023-08-17T08:00:16;93495.13;;;32.29;85.58
59367;BME280;45163;47.690;11.770;2023-08-17T08:02:42;93498.44;;;30.70;87.13
59367;BME280;45163;47.690;11.770;2023-08-17T08:05:08;93494.72;;;32.00;95.45
59367;BME280;45163;47.690;11.770;2023-08-17T08:07:34;93492.88;;;31.95;82.86
59367;BME280;45163;47.690;11.770;2023-08-17T08:10:00;93488.22;;;32.80;79.63
59367;BME280;45163;47.690;11.770;2023-08-17T08:12:26;93493.72;;;32.53;81.37
59367;BME280;45163;47.690;11.770;2023-08-17T08:14:52;93487.19;;;32.35;79.58
59367;BME280;45163;47.690;11.770;2023-08-17T08:17:18;93485.34;;;33.13;75.78
59367;BME280;45163;47.690;11.770;2023-08-17T08:19:45;93486.28;;;32.90;80.46
59367;BME280;45163;47.690;11.770;2023-08-17T08:22:11;93486.34;;;32.83;77.86
59367;BME280;45163;47.690;11.770;2023-08-17T08:24:37;93485.63;;;33.25;77.10
59367;BME280;45163;47.690;11.770;2023-08-17T08:27:04;93484.59;;;31.89;79.69
59367;BME280;45163;47.690;11.770;2023-08-17T08:29:30;93486.38;;;32.50;79.22
59367;BME280;45163;47.690;11.770;2023-08-17T08:31:56;93484.00;;;33.56;76.36
59367;BME280;45163;47.690;11.770;2023-08-17T08:34:25;93477.69;;;33.83;74.80
59367;BME280;45163;47.690;11.770;2023-08-17T08:36:51;93483.94;;;33.21;75.39
59367;BME280;45163;47.690;11.770;2023-08-17T08:39:17;93488.03;;;33.28;76.30
59367;BME280;45163;47.690;11.770;2023-08-17T08:41:43;93481.66;;;34.41;69.78
59367;BME280;45163;47.690;11.770;2023-08-17T08:44:09;93477.75;;;33.75;76.91
59367;BME280;45163;47.690;11.770;2023-08-17T08:46:37;93481.72;;;34.24;72.19
59367;BME280;45163;47.690;11.770;2023-08-17T08:49:06;93471.78;;;34.33;72.08
59367;BME280;45163;47.690;11.770;2023-08-17T08:51:38;93477.31;;;33.44;74.51
59367;BME280;45163;47.690;11.770;2023-08-17T08:54:07;93471.00;;;34.50;73.27
59367;BME280;45163;47.690;11.770;2023-08-17T08:56:38;93473.69;;;33.51;70.60
59367;BME280;45163;47.690;11.770;2023-08-17T08:59:08;93467.09;;;34.82;67.30
59367;BME280;45163;47.690;11.770;2023-08-17T09:01:34;93468.16;;;34.86;71.29
59367;BME280;45163;47.690;11.770;2023-08-17T09:04:01;93471.34;;;35.56;65.91
59367;BME280;45163;47.690;11.770;2023-08-17T09:06:32;93466.19;;;35.16;64.90
59367;BME280;45163;47.690;11.770;2023-08-17T09:08:58;93468.97;;;35.91;69.33
59367;BME280;45163;47.690;11.770;2023-08-17T09:11:26;93467.31;;;35.50;73.86
59367;BME280;45163;47.690;11.770;2023-08-17T09:13:53;93464.03;;;36.11;66.96
59367;BME280;45163;47.690;11.770;2023-08-17T09:16:19;93465.38;;;36.80;59.87
59367;BME280;45163;47.690;11.770;2023-08-17T09:18:45;93458.94;;;35.61;70.49
59367;BME280;45163;47.690;11.770;2023-08-17T09:21:24;93460.25;;;36.28;63.46
59367;BME280;45163;47.690;11.770;2023-08-17T09:23:54;93457.16;;;36.14;61.19
59367;BME280;45163;47.690;11.770;2023-08-17T09:26:21;93458.56;;;35.18;59.82
59367;BME280;45163;47.690;11.770;2023-08-17T09:28:52;93443.41;;;36.01;58.82
59367;BME280;45163;47.690;11.770;2023-08-17T09:31:23;93452.19;;;35.37;56.80
59367;BME280;45163;47.690;11.770;2023-08-17T09:33:50;93448.00;;;36.26;54.07
59367;BME280;45163;47.690;11.770;2023-08-17T09:36:25;93452.66;;;36.11;55.48
59367;BME280;45163;47.690;11.770;2023-08-17T09:38:51;93450.28;;;35.50;56.65
59367;BME280;45163;47.690;11.770;2023-08-17T09:41:18;93447.25;;;36.25;53.46
59367;BME280;45163;47.690;11.770;2023-08-17T09:43:46;93448.38;;;37.02;53.21
59367;BME280;45163;47.690;11.770;2023-08-17T09:46:12;93444.28;;;36.74;55.17
59367;BME280;45163;47.690;11.770;2023-08-17T09:48:38;93439.69;;;37.52;51.04
59367;BME280;45163;47.690;11.770;2023-08-17T09:51:05;93436.34;;;37.13;52.33
59367;BME280;45163;47.690;11.770;2023-08-17T09:53:35;93441.69;;;37.19;51.63
59367;BME280;45163;47.690;11.770;2023-08-17T09:56:07;93433.16;;;37.61;45.73
59367;BME280;45163;47.690;11.770;2023-08-17T09:58:39;93431.03;;;38.38;43.80
59367;BME280;45163;47.690;11.770;2023-08-17T10:01:07;93440.28;;;37.94;44.50
59367;BME280;45163;47.690;11.770;2023-08-17T10:03:34;93422.66;;;38.99;38.60
59367;BME280;45163;47.690;11.770;2023-08-17T10:06:09;93430.69;;;38.67;44.47
59367;BME280;45163;47.690;11.770;2023-08-17T10:08:41;93427.25;;;39.27;43.80
59367;BME280;45163;47.690;11.770;2023-08-17T10:11:08;93425.16;;;38.81;41.88
59367;BME280;45163;47.690;11.770;2023-08-17T10:13:42;93422.16;;;38.79;39.25
59367;BME280;45163;47.690;11.770;2023-08-17T10:16:21;93423.09;;;38.48;41.02
59367;BME280;45163;47.690;11.770;2023-08-17T10:21:29;93423.44;;;37.98;45.06
59367;BME280;45163;47.690;11.770;2023-08-17T10:23:58;93423.25;;;38.74;38.40
59367;BME280;45163;47.690;11.770;2023-08-17T10:26:24;93424.59;;;39.55;38.26
59367;BME280;45163;47.690;11.770;2023-08-17T10:28:52;93423.75;;;40.41;35.81
59367;BME280;45163;47.690;11.770;2023-08-17T10:31:18;93416.91;;;40.20;34.45
59367;BME280;45163;47.690;11.770;2023-08-17T10:33:46;93420.00;;;40.24;35.57
59367;BME280;45163;47.690;11.770;2023-08-17T10:36:14;93414.09;;;38.75;35.47
59367;BME280;45163;47.690;11.770;2023-08-17T10:38:41;93424.28;;;37.67;40.10
59367;BME280;45163;47.690;11.770;2023-08-17T10:41:08;93419.78;;;37.00;43.41
59367;BME280;45163;47.690;11.770;2023-08-17T10:43:47;93420.78;;;36.23;51.20
59367;BME280;45163;47.690;11.770;2023-08-17T10:46:18;93413.88;;;36.35;52.67
59367;BME280;45163;47.690;11.770;2023-08-17T10:48:44;93416.53;;;35.54;49.17
59367;BME280;45163;47.690;11.770;2023-08-17T10:51:11;93412.88;;;35.34;53.99
59367;BME280;45163;47.690;11.770;2023-08-17T10:53:43;93419.09;;;34.57;59.41
59367;BME280;45163;47.690;11.770;2023-08-17T10:56:13;93412.69;;;35.03;59.12
59367;BME280;45163;47.690;11.770;2023-08-17T10:58:42;93415.75;;;35.92;54.34
59367;BME280;45163;47.690;11.770;2023-08-17T11:01:08;93416.63;;;36.64;51.58
59367;BME280;45163;47.690;11.770;2023-08-17T11:03:34;93410.66;;;37.23;47.45
59367;BME280;45163;47.690;11.770;2023-08-17T11:06:16;93416.78;;;37.50;43.00
59367;BME280;45163;47.690;11.770;2023-08-17T11:08:56;93418.38;;;37.96;38.93
59367;BME280;45163;47.690;11.770;2023-08-17T11:11:22;93417.97;;;37.26;45.30
59367;BME280;45163;47.690;11.770;2023-08-17T11:13:49;93421.72;;;37.50;43.83
59367;BME280;45163;47.690;11.770;2023-08-17T11:16:16;93411.44;;;37.78;42.13
59367;BME280;45163;47.690;11.770;2023-08-17T11:18:46;93411.31;;;38.42;38.77
59367;BME280;45163;47.690;11.770;2023-08-17T11:21:12;93413.94;;;38.61;36.09
59367;BME280;45163;47.690;11.770;2023-08-17T11:23:40;93406.28;;;38.19;35.04
59367;BME280;45163;47.690;11.770;2023-08-17T11:26:07;93406.75;;;38.96;33.15
59367;BME280;45163;47.690;11.770;2023-08-17T11:28:33;93405.38;;;38.73;35.02
59367;BME280;45163;47.690;11.770;2023-08-17T11:31:04;93410.34;;;37.83;39.89
59367;BME280;45163;47.690;11.770;2023-08-17T11:33:31;93401.84;;;38.28;38.78
59367;BME280;45163;47.690;11.770;2023-08-17T11:35:58;93405.75;;;38.56;39.23
59367;BME280;45163;47.690;11.770;2023-08-17T11:38:25;93393.59;;;38.44;38.72
59367;BME280;45163;47.690;11.770;2023-08-17T11:40:52;93395.63;;;38.88;37.11
59367;BME280;45163;47.690;11.770;2023-08-17T11:43:19;93399.44;;;38.69;40.59
59367;BME280;45163;47.690;11.770;2023-08-17T11:45:46;93381.91;;;38.40;35.92
59367;BME280;45163;47.690;11.770;2023-08-17T11:48:12;93385.88;;;38.34;39.62
59367;BME280;45163;47.690;11.770;2023-08-17T11:50:38;93384.66;;;38.61;37.10
59367;BME280;45163;47.690;11.770;2023-08-17T11:53:07;93376.94;;;39.34;35.45
59367;BME280;45163;47.690;11.770;2023-08-17T11:55:33;93380.69;;;39.74;33.64
59367;BME280;45163;47.690;11.770;2023-08-17T11:57:59;93376.00;;;39.92;30.49
59367;BME280;45163;47.690;11.770;2023-08-17T12:00:27;93375.19;;;40.03;27.59
59367;BME280;45163;47.690;11.770;2023-08-17T12:02:53;93372.59;;;39.33;29.21
59367;BME280;45163;47.690;11.770;2023-08-17T12:05:23;93372.59;;;39.21;30.10
59367;BME280;45163;47.690;11.770;2023-08-17T12:07:50;93371.25;;;39.10;30.94
59367;BME280;45163;47.690;11.770;2023-08-17T12:10:18;93368.31;;;38.85;30.27
59367;BME280;45163;47.690;11.770;2023-08-17T12:12:47;93366.44;;;38.43;30.50
59367;BME280;45163;47.690;11.770;2023-08-17T12:15:14;93361.06;;;38.37;32.24
59367;BME280;45163;47.690;11.770;2023-08-17T12:17:48;93364.03;;;38.27;31.09
59367;BME280;45163;47.690;11.770;2023-08-17T12:20:18;93357.81;;;38.31;31.29
59367;BME280;45163;47.690;11.770;2023-08-17T12:22:46;93356.44;;;37.75;32.53
59367;BME280;45163;47.690;11.770;2023-08-17T12:25:13;93349.75;;;38.16;32.21
59367;BME280;45163;47.690;11.770;2023-08-17T12:27:40;93353.03;;;38.45;32.49
59367;BME280;45163;47.690;11.770;2023-08-17T12:30:24;93347.19;;;38.67;32.08
59367;BME280;45163;47.690;11.770;2023-08-17T12:32:50;93342.84;;;38.54;31.90
59367;BME280;45163;47.690;11.770;2023-08-17T12:35:17;93347.06;;;38.76;30.68
59367;BME280;45163;47.690;11.770;2023-08-17T12:37:43;93337.25;;;39.03;29.07
59367;BME280;45163;47.690;11.770;2023-08-17T12:40:09;93337.75;;;39.23;30.38
59367;BME280;45163;47.690;11.770;2023-08-17T12:42:35;93332.50;;;39.68;29.29
59367;BME280;45163;47.690;11.770;2023-08-17T12:45:01;93327.72;;;39.47;30.16
59367;BME280;45163;47.690;11.770;2023-08-17T12:47:27;93319.06;;;38.84;32.72